createdAt,value
2017-11-18T00:01:26.559Z,23.03
2017-11-18T00:03:53.841Z,26.00
2017-11-18T00:06:21.122Z,24.50
2017-11-18T00:08:48.408Z,21.90
2017-11-18T00:11:15.671Z,23.00
2017-11-18T00:13:42.964Z,18.97
2017-11-18T00:16:10.238Z,21.30
2017-11-18T00:18:37.527Z,22.40
2017-11-18T00:21:04.797Z,22.63
2017-11-18T00:23:32.093Z,29.50
2017-11-18T00:25:59.360Z,20.60
2017-11-18T00:28:26.651Z,18.17
2017-11-18T00:30:53.928Z,18.27
2017-11-18T00:33:21.232Z,24.30
2017-11-18T00:35:48.491Z,22.40
2017-11-18T00:38:15.790Z,18.20
2017-11-18T00:40:43.065Z,17.00
2017-11-18T00:43:10.327Z,16.70
2017-11-18T00:45:37.621Z,15.50
2017-11-18T00:48:04.889Z,17.33
2017-11-18T00:50:32.183Z,21.43
2017-11-18T00:52:59.451Z,15.03
2017-11-18T00:55:26.744Z,20.00
2017-11-18T00:57:54.009Z,17.20
2017-11-18T01:00:21.295Z,15.47
2017-11-18T01:02:48.564Z,21.57
2017-11-18T01:05:15.861Z,17.70
2017-11-18T01:07:43.123Z,18.47
2017-11-18T01:10:10.408Z,20.50
2017-11-18T01:12:37.680Z,15.40
2017-11-18T01:15:04.969Z,14.67
2017-11-18T01:17:32.244Z,19.10
2017-11-18T01:20:00.428Z,19.13
2017-11-18T01:22:27.700Z,16.80
2017-11-18T01:24:55.003Z,17.07
2017-11-18T01:27:22.272Z,17.67
2017-11-18T01:29:49.546Z,16.17
2017-11-18T01:32:16.829Z,15.70
2017-11-18T01:34:44.100Z,15.80
2017-11-18T01:37:11.386Z,15.33
2017-11-18T01:39:38.660Z,16.30
2017-11-18T01:42:05.948Z,17.50
2017-11-18T01:44:33.215Z,16.47
2017-11-18T01:47:00.506Z,16.30
2017-11-18T01:52:01.465Z,22.77
2017-11-18T01:54:28.730Z,16.63
2017-11-18T01:56:56.015Z,15.00
2017-11-18T01:59:23.281Z,15.67
2017-11-18T02:01:50.568Z,25.67
2017-11-18T02:04:17.840Z,15.50
2017-11-18T02:06:45.133Z,15.33
2017-11-18T02:09:12.399Z,15.43
2017-11-18T02:11:39.705Z,12.97
2017-11-18T02:14:06.975Z,13.00
2017-11-18T02:16:34.251Z,15.87
2017-11-18T02:19:01.543Z,15.37
2017-11-18T02:21:28.815Z,13.03
2017-11-18T02:23:56.127Z,15.30
2017-11-18T02:26:23.376Z,17.30
2017-11-18T02:28:50.757Z,20.00
2017-11-18T02:31:18.028Z,14.40
2017-11-18T02:33:45.316Z,13.57
2017-11-18T02:36:12.585Z,15.07
2017-11-18T02:38:39.875Z,20.57
2017-11-18T02:41:07.146Z,18.10
2017-11-18T02:43:34.442Z,16.07
2017-11-18T02:46:01.709Z,14.70
2017-11-18T02:48:29.002Z,14.40
2017-11-18T02:50:56.266Z,13.47
2017-11-18T02:53:23.555Z,14.30
2017-11-18T02:55:50.830Z,19.90
2017-11-18T02:58:18.135Z,26.10
2017-11-18T03:00:45.406Z,18.93
2017-11-18T03:03:12.707Z,17.93
2017-11-18T03:05:39.987Z,26.10
2017-11-18T03:08:07.258Z,32.50
2017-11-18T03:10:34.545Z,21.10
2017-11-18T03:13:01.810Z,15.90
2017-11-18T03:15:29.103Z,17.33
2017-11-18T03:17:56.377Z,31.23
2017-11-18T03:20:23.679Z,26.17
2017-11-18T03:22:50.952Z,18.07
2017-11-18T03:25:18.237Z,21.40
2017-11-18T03:27:45.507Z,15.03
2017-11-18T03:30:12.805Z,14.67
2017-11-18T03:32:40.078Z,12.87
2017-11-18T03:35:07.350Z,14.10
2017-11-18T03:37:34.635Z,11.60
2017-11-18T03:40:01.910Z,10.87
2017-11-18T03:42:29.200Z,11.80
2017-11-18T03:44:56.508Z,12.20
2017-11-18T03:47:23.755Z,13.03
2017-11-18T03:49:51.022Z,14.67
2017-11-18T03:52:18.308Z,13.37
2017-11-18T03:54:45.576Z,14.50
2017-11-18T03:59:46.607Z,9.70
2017-11-18T04:02:13.897Z,10.93
2017-11-18T04:04:41.156Z,8.77
2017-11-18T04:07:08.448Z,10.03
2017-11-18T04:09:35.720Z,10.40
2017-11-18T04:12:03.012Z,8.13
2017-11-18T04:14:30.272Z,9.90
2017-11-18T04:16:57.527Z,8.30
2017-11-18T04:19:24.807Z,8.07
2017-11-18T04:21:52.058Z,8.60
2017-11-18T04:24:19.350Z,8.53
2017-11-18T04:26:46.612Z,7.93
2017-11-18T04:29:13.896Z,7.77
2017-11-18T04:31:41.161Z,8.50
2017-11-18T04:34:08.441Z,8.03
2017-11-18T04:36:35.705Z,8.00
2017-11-18T04:39:02.992Z,7.30
2017-11-18T04:41:30.258Z,7.77
2017-11-18T04:43:57.546Z,9.80
2017-11-18T04:46:24.812Z,8.30
2017-11-18T04:48:52.089Z,7.50
2017-11-18T04:51:19.369Z,7.77
2017-11-18T04:53:46.633Z,8.00
2017-11-18T04:56:13.916Z,8.00
2017-11-18T04:58:41.185Z,7.30
2017-11-18T05:01:08.471Z,7.23
2017-11-18T05:03:35.731Z,7.40
2017-11-18T05:06:03.024Z,6.90
2017-11-18T05:08:30.290Z,7.83
2017-11-18T05:10:57.564Z,7.57
2017-11-18T05:13:24.829Z,8.00
2017-11-18T05:15:52.107Z,7.00
2017-11-18T05:18:19.369Z,7.33
2017-11-18T05:20:46.652Z,7.93
2017-11-18T05:23:13.917Z,7.13
2017-11-18T05:25:41.196Z,6.40
2017-11-18T05:28:08.453Z,6.17
2017-11-18T05:30:35.749Z,7.37
2017-11-18T05:33:03.003Z,6.67
2017-11-18T05:35:30.267Z,6.30
2017-11-18T05:37:57.536Z,6.00
2017-11-18T05:40:24.792Z,5.70
2017-11-18T05:42:52.080Z,6.07
2017-11-18T05:45:19.337Z,5.77
2017-11-18T05:47:46.618Z,6.63
2017-11-18T05:50:13.876Z,6.40
2017-11-18T05:52:41.152Z,5.80
2017-11-18T05:55:08.416Z,6.00
2017-11-18T05:57:35.695Z,5.80
2017-11-18T06:00:02.966Z,6.23
2017-11-18T06:02:30.244Z,6.10
2017-11-18T06:04:57.509Z,5.80
2017-11-18T06:07:24.789Z,6.07
2017-11-18T06:09:52.054Z,6.40
2017-11-18T06:12:19.350Z,6.20
2017-11-18T06:14:46.611Z,6.27
2017-11-18T06:17:13.873Z,5.43
2017-11-18T06:19:41.145Z,5.43
2017-11-18T06:22:08.409Z,5.80
2017-11-18T06:24:35.695Z,5.93
2017-11-18T06:27:02.957Z,5.20
2017-11-18T06:29:30.228Z,5.57
2017-11-18T06:31:57.489Z,5.70
2017-11-18T06:34:24.772Z,5.80
2017-11-18T06:36:52.037Z,6.00
2017-11-18T06:39:19.307Z,6.50
2017-11-18T06:41:46.571Z,5.50
2017-11-18T06:44:13.865Z,6.00
2017-11-18T06:46:41.122Z,5.80
2017-11-18T06:49:08.381Z,5.20
2017-11-18T06:51:35.668Z,6.60
2017-11-18T06:54:02.933Z,5.50
2017-11-18T06:56:30.219Z,5.67
2017-11-18T06:58:57.507Z,5.87
2017-11-18T07:01:24.778Z,5.30
2017-11-18T07:03:52.048Z,4.50
2017-11-18T07:06:19.350Z,5.60
2017-11-18T07:08:46.604Z,5.23
2017-11-18T07:11:13.864Z,7.43
2017-11-18T07:13:41.153Z,5.13
2017-11-18T07:16:08.409Z,5.80
2017-11-18T07:18:35.714Z,6.00
2017-11-18T07:21:02.977Z,6.57
2017-11-18T07:23:30.235Z,6.43
2017-11-18T07:25:57.529Z,6.40
2017-11-18T07:28:24.784Z,6.83
2017-11-18T07:30:52.083Z,6.20
2017-11-18T07:33:19.349Z,6.90
2017-11-18T07:35:46.623Z,6.80
2017-11-18T07:38:13.911Z,6.43
2017-11-18T07:40:41.205Z,6.47
2017-11-18T07:43:08.510Z,6.60
2017-11-18T07:45:35.771Z,6.50
2017-11-18T07:48:03.039Z,6.70
2017-11-18T07:50:30.316Z,7.27
2017-11-18T07:52:57.583Z,6.83
2017-11-18T07:55:24.885Z,7.40
2017-11-18T07:57:52.187Z,7.00
2017-11-18T08:00:19.444Z,7.43
2017-11-18T08:02:46.731Z,7.10
2017-11-18T08:05:14.033Z,6.77
2017-11-18T08:07:41.293Z,7.63
2017-11-18T08:10:08.555Z,6.90
2017-11-18T08:12:35.848Z,7.70
2017-11-18T08:15:03.108Z,7.63
2017-11-18T08:17:30.423Z,8.17
2017-11-18T08:19:57.729Z,8.03
2017-11-18T08:22:24.999Z,8.53
2017-11-18T08:24:52.259Z,7.57
2017-11-18T08:27:19.553Z,8.60
2017-11-18T08:29:46.822Z,10.37
2017-11-18T08:32:14.137Z,8.60
2017-11-18T08:34:41.393Z,9.50
2017-11-18T08:37:08.663Z,9.87
2017-11-18T08:39:35.956Z,10.60
2017-11-18T08:42:03.239Z,11.20
2017-11-18T08:44:30.530Z,11.20
2017-11-18T08:46:57.823Z,9.30
2017-11-18T08:49:25.092Z,9.27
2017-11-18T08:51:52.376Z,8.67
2017-11-18T08:54:19.660Z,10.30
2017-11-18T08:56:46.962Z,9.60
2017-11-18T08:59:14.215Z,9.30
2017-11-18T09:01:41.512Z,9.47
2017-11-18T09:04:08.855Z,8.47
2017-11-18T09:06:36.143Z,9.70
2017-11-18T09:09:03.409Z,9.50
2017-11-18T09:11:30.703Z,9.10
2017-11-18T09:13:57.972Z,7.50
2017-11-18T09:16:25.231Z,8.67
2017-11-18T09:18:52.522Z,8.57
2017-11-18T09:21:19.788Z,7.80
2017-11-18T09:23:47.082Z,8.97
2017-11-18T09:26:14.347Z,6.63
2017-11-18T09:28:41.627Z,8.77
2017-11-18T09:31:08.896Z,8.97
2017-11-18T09:33:36.195Z,9.60
2017-11-18T09:36:03.556Z,9.83
2017-11-18T09:38:30.848Z,10.13
2017-11-18T09:40:58.175Z,12.77
2017-11-18T09:43:25.439Z,11.30
2017-11-18T09:45:52.779Z,10.47
2017-11-18T09:48:20.072Z,10.00
2017-11-18T09:50:47.346Z,10.63
2017-11-18T09:53:14.740Z,10.67
2017-11-18T09:55:42.104Z,11.00
2017-11-18T09:58:09.372Z,11.03
2017-11-18T10:00:36.661Z,9.30
2017-11-18T10:03:03.964Z,9.20
2017-11-18T10:05:31.268Z,8.33
2017-11-18T10:07:58.527Z,8.97
2017-11-18T10:10:25.815Z,8.73
2017-11-18T10:12:53.107Z,9.10
2017-11-18T10:15:20.373Z,8.07
2017-11-18T10:17:47.647Z,8.07
2017-11-18T10:20:14.919Z,7.67
2017-11-18T10:22:42.195Z,8.57
2017-11-18T10:25:09.462Z,7.27
2017-11-18T10:27:36.751Z,6.67
2017-11-18T10:30:04.016Z,6.90
2017-11-18T10:32:31.309Z,6.70
2017-11-18T10:34:58.583Z,5.90
2017-11-18T10:37:25.847Z,6.67
2017-11-18T10:39:53.124Z,6.83
2017-11-18T10:42:20.385Z,6.33
2017-11-18T10:44:47.671Z,8.17
2017-11-18T10:47:14.930Z,7.00
2017-11-18T10:49:42.216Z,6.30
2017-11-18T10:52:09.478Z,6.03
2017-11-18T10:54:36.760Z,7.40
2017-11-18T10:57:04.021Z,6.00
2017-11-18T10:59:31.396Z,6.77
2017-11-18T11:01:58.665Z,7.30
2017-11-18T11:04:25.956Z,6.63
2017-11-18T11:06:53.215Z,6.40
2017-11-18T11:09:20.480Z,6.60
2017-11-18T11:11:47.759Z,6.70
2017-11-18T11:14:15.024Z,6.60
2017-11-18T11:16:42.308Z,6.80
2017-11-18T11:19:09.636Z,6.47
2017-11-18T11:21:36.990Z,6.43
2017-11-18T11:24:04.299Z,6.57
2017-11-18T11:26:31.595Z,7.20
2017-11-18T11:28:58.862Z,7.10
2017-11-18T11:31:26.208Z,7.70
2017-11-18T11:33:53.472Z,7.20
2017-11-18T11:36:20.753Z,8.17
2017-11-18T11:38:48.011Z,7.10
2017-11-18T11:41:15.320Z,7.40
2017-11-18T11:43:42.584Z,5.73
2017-11-18T11:46:09.935Z,6.20
2017-11-18T11:48:37.191Z,7.33
2017-11-18T11:51:04.451Z,5.30
2017-11-18T11:53:31.723Z,6.33
2017-11-18T11:55:58.990Z,7.03
2017-11-18T11:58:26.292Z,5.40
2017-11-18T12:00:53.547Z,6.50
2017-11-18T12:03:20.828Z,5.80
2017-11-18T12:05:48.083Z,5.43
2017-11-18T12:08:15.418Z,6.17
2017-11-18T12:10:42.698Z,6.77
2017-11-18T12:13:09.943Z,4.90
2017-11-18T12:15:37.224Z,7.10
2017-11-18T12:18:04.489Z,6.20
2017-11-18T12:20:31.772Z,6.60
2017-11-18T12:22:59.036Z,6.47
2017-11-18T12:25:26.328Z,7.77
2017-11-18T12:27:53.649Z,7.10
2017-11-18T12:30:21.000Z,7.27
2017-11-18T12:32:48.256Z,6.80
2017-11-18T12:35:15.540Z,6.27
2017-11-18T12:37:42.808Z,6.87
2017-11-18T12:40:10.090Z,6.43
2017-11-18T12:42:37.368Z,5.90
2017-11-18T12:45:04.648Z,5.90
2017-11-18T12:47:31.986Z,6.53
2017-11-18T12:49:59.331Z,6.37
2017-11-18T12:52:26.592Z,6.37
2017-11-18T12:54:54.708Z,6.90
2017-11-18T12:57:22.001Z,7.57
2017-11-18T12:59:49.253Z,7.43
2017-11-18T13:02:16.625Z,6.20
2017-11-18T13:04:43.885Z,7.50
2017-11-18T13:07:11.164Z,6.07
2017-11-18T13:09:38.423Z,5.70
2017-11-18T13:12:05.697Z,5.50
2017-11-18T13:14:32.993Z,4.63
2017-11-18T13:17:00.269Z,5.77
2017-11-18T13:19:27.603Z,6.80
2017-11-18T13:21:54.931Z,5.83
2017-11-18T13:24:22.196Z,5.30
2017-11-18T13:26:49.475Z,5.30
2017-11-18T13:29:16.736Z,4.43
2017-11-18T13:31:44.032Z,4.77
2017-11-18T13:34:11.288Z,4.30
2017-11-18T13:36:38.546Z,4.20
2017-11-18T13:39:05.825Z,5.07
2017-11-18T13:41:33.096Z,4.70
2017-11-18T13:44:00.376Z,4.47
2017-11-18T13:46:27.636Z,4.37
2017-11-18T13:48:54.912Z,5.93
2017-11-18T13:51:22.201Z,5.30
2017-11-18T13:53:49.490Z,5.47
2017-11-18T13:56:16.749Z,5.57
2017-11-18T13:58:44.028Z,6.13
2017-11-18T14:01:11.293Z,6.67
2017-11-18T14:03:38.594Z,5.87
2017-11-18T14:06:05.859Z,6.43
2017-11-18T14:08:33.138Z,6.20
2017-11-18T14:11:00.433Z,7.37
2017-11-18T14:13:27.708Z,7.83
2017-11-18T14:15:54.968Z,6.97
2017-11-18T14:18:22.268Z,8.10
2017-11-18T14:20:49.527Z,6.83
2017-11-18T14:23:16.794Z,8.00
2017-11-18T14:25:44.163Z,8.03
2017-11-18T14:28:11.434Z,8.30
2017-11-18T14:30:38.712Z,8.03
2017-11-18T14:33:05.972Z,8.60
2017-11-18T14:35:33.252Z,8.63
2017-11-18T14:38:00.517Z,8.60
2017-11-18T14:40:27.807Z,7.53
2017-11-18T14:42:55.068Z,8.63
2017-11-18T14:45:22.356Z,8.00
2017-11-18T14:47:49.631Z,8.77
2017-11-18T14:50:16.937Z,7.60
2017-11-18T14:52:44.200Z,8.87
2017-11-18T14:55:11.456Z,8.87
2017-11-18T14:57:39.159Z,7.27
2017-11-18T15:00:06.431Z,8.10
2017-11-18T15:02:33.713Z,7.97
2017-11-18T15:05:00.967Z,6.90
2017-11-18T15:07:28.249Z,8.00
2017-11-18T15:09:55.508Z,7.53
2017-11-18T15:12:22.786Z,7.30
2017-11-18T15:15:05.795Z,6.90
2017-11-18T15:17:38.727Z,6.97
2017-11-18T15:20:11.709Z,6.47
2017-11-18T15:22:58.773Z,6.93
2017-11-18T15:25:31.919Z,6.77
2017-11-18T15:28:04.969Z,5.90
2017-11-18T15:30:53.073Z,6.33
2017-11-18T15:33:22.915Z,5.70
2017-11-18T15:35:50.832Z,6.80
2017-11-18T15:38:24.014Z,6.70
2017-11-18T15:40:51.277Z,5.80
2017-11-18T15:43:21.256Z,7.20
2017-11-18T15:46:03.400Z,6.10
2017-11-18T15:48:36.525Z,5.57
2017-11-18T15:51:06.517Z,6.60
2017-11-18T15:53:39.360Z,5.50
2017-11-18T15:56:12.358Z,6.27
2017-11-18T15:58:40.151Z,5.83
2017-11-18T16:01:13.232Z,5.37
2017-11-18T16:03:46.179Z,5.60
2017-11-18T16:06:24.160Z,5.10
2017-11-18T16:08:51.435Z,6.00
2017-11-18T16:11:18.709Z,5.53
2017-11-18T16:13:46.044Z,6.13
2017-11-18T16:16:13.296Z,5.20
2017-11-18T16:18:40.672Z,4.53
2017-11-18T16:21:07.936Z,5.10
2017-11-18T16:23:35.196Z,4.90
2017-11-18T16:26:02.474Z,5.43
2017-11-18T16:28:29.797Z,5.10
2017-11-18T16:30:57.076Z,5.40
2017-11-18T16:33:24.332Z,4.90
2017-11-18T16:35:51.608Z,5.13
2017-11-18T16:38:18.869Z,4.97
2017-11-18T16:40:46.144Z,5.43
2017-11-18T16:43:13.401Z,4.73
2017-11-18T16:45:40.741Z,5.10
2017-11-18T16:48:07.995Z,4.90
2017-11-18T16:50:35.281Z,6.13
2017-11-18T16:53:02.540Z,5.00
2017-11-18T16:55:29.816Z,5.53
2017-11-18T16:57:57.075Z,5.37
2017-11-18T17:00:24.375Z,5.27
2017-11-18T17:02:51.740Z,5.53
2017-11-18T17:05:19.002Z,5.17
2017-11-18T17:07:46.272Z,5.63
2017-11-18T17:10:13.538Z,4.23
2017-11-18T17:12:40.823Z,5.60
2017-11-18T17:15:08.112Z,5.43
2017-11-18T17:17:35.392Z,5.43
2017-11-18T17:20:02.720Z,5.67
2017-11-18T17:22:29.992Z,4.97
2017-11-18T17:24:57.329Z,6.30
2017-11-18T17:27:24.611Z,6.03
2017-11-18T17:29:51.875Z,5.53
2017-11-18T17:32:19.192Z,6.30
2017-11-18T17:34:46.552Z,5.33
2017-11-18T17:37:13.839Z,6.10
2017-11-18T17:39:41.100Z,5.60
2017-11-18T17:42:08.356Z,5.03
2017-11-18T17:44:35.664Z,6.80
2017-11-18T17:47:03.030Z,5.97
2017-11-18T17:49:30.308Z,5.40
2017-11-18T17:51:57.567Z,5.50
2017-11-18T17:54:24.858Z,6.17
2017-11-18T17:56:52.125Z,6.17
2017-11-18T17:59:19.395Z,5.70
2017-11-18T18:01:46.655Z,6.13
2017-11-18T18:04:13.935Z,6.60
2017-11-18T18:06:41.197Z,6.37
2017-11-18T18:09:08.609Z,5.80
2017-11-18T18:11:35.958Z,5.30
2017-11-18T18:14:03.247Z,5.53
2017-11-18T18:16:30.505Z,6.10
2017-11-18T18:18:57.809Z,6.20
2017-11-18T18:21:25.068Z,5.80
2017-11-18T18:23:52.334Z,5.20
2017-11-18T18:26:19.615Z,5.83
2017-11-18T18:28:46.939Z,6.00
2017-11-18T18:31:14.222Z,6.63
2017-11-18T18:33:41.497Z,6.07
2017-11-18T18:36:08.799Z,6.83
2017-11-18T18:38:36.062Z,7.30
2017-11-18T18:41:03.640Z,6.97
2017-11-18T18:43:30.908Z,6.67
2017-11-18T18:45:58.188Z,6.60
2017-11-18T18:48:25.453Z,6.80
2017-11-18T18:50:52.715Z,7.60
2017-11-18T18:53:19.987Z,7.60
2017-11-18T18:55:47.254Z,6.93
2017-11-18T18:58:14.544Z,6.73
2017-11-18T19:00:41.845Z,6.50
2017-11-18T19:03:09.120Z,6.67
2017-11-18T19:05:36.398Z,7.27
2017-11-18T19:08:03.684Z,6.63
2017-11-18T19:10:30.945Z,7.93
2017-11-18T19:12:58.234Z,8.07
2017-11-18T19:15:25.500Z,7.80
2017-11-18T19:17:52.796Z,7.23
2017-11-18T19:20:20.056Z,7.33
2017-11-18T19:22:47.326Z,7.60
2017-11-18T19:25:14.612Z,8.60
2017-11-18T19:27:44.467Z,7.50
2017-11-18T19:30:16.363Z,8.27
2017-11-18T19:32:43.639Z,7.57
2017-11-18T19:35:10.917Z,7.83
2017-11-18T19:37:38.187Z,8.30
2017-11-18T19:40:05.468Z,7.50
2017-11-18T19:42:32.732Z,8.70
2017-11-18T19:45:00.008Z,8.50
2017-11-18T19:47:27.273Z,7.63
2017-11-18T19:49:54.595Z,8.27
2017-11-18T19:52:21.831Z,8.20
2017-11-18T19:54:49.094Z,7.60
2017-11-18T19:57:16.375Z,8.90
2017-11-18T19:59:43.648Z,9.53
2017-11-18T20:02:10.938Z,9.23
2017-11-18T20:04:38.191Z,8.60
2017-11-18T20:07:05.479Z,8.73
2017-11-18T20:09:33.317Z,7.80
2017-11-18T20:12:00.606Z,8.57
2017-11-18T20:14:27.863Z,7.77
2017-11-18T20:16:55.151Z,7.10
2017-11-18T20:19:22.420Z,8.73
2017-11-18T20:21:49.700Z,8.47
2017-11-18T20:24:16.963Z,8.23
2017-11-18T20:26:44.269Z,7.53
2017-11-18T20:29:11.541Z,9.23
2017-11-18T20:31:38.805Z,7.63
2017-11-18T20:34:06.085Z,9.00
2017-11-18T20:36:33.352Z,7.93
2017-11-18T20:39:00.640Z,9.17
2017-11-18T20:41:27.915Z,10.87
2017-11-18T20:43:55.196Z,10.67
2017-11-18T20:46:22.459Z,9.50
2017-11-18T20:48:49.743Z,9.50
2017-11-18T20:51:17.016Z,8.90
2017-11-18T20:53:44.296Z,9.53
2017-11-18T20:56:11.556Z,8.87
2017-11-18T20:58:38.872Z,8.90
2017-11-18T21:01:06.133Z,9.00
2017-11-18T21:03:33.396Z,9.70
2017-11-18T21:06:00.680Z,9.87
2017-11-18T21:08:27.953Z,10.57
2017-11-18T21:10:55.240Z,10.13
2017-11-18T21:13:22.504Z,10.20
2017-11-18T21:15:49.788Z,10.00
2017-11-18T21:18:17.082Z,10.90
2017-11-18T21:20:44.344Z,10.70
2017-11-18T21:23:14.311Z,10.87
2017-11-18T21:25:41.760Z,11.20
2017-11-18T21:28:09.026Z,11.27
2017-11-18T21:30:36.316Z,10.20
2017-11-18T21:33:03.593Z,11.93
2017-11-18T21:35:30.885Z,12.40
2017-11-18T21:37:58.149Z,10.97
2017-11-18T21:40:25.432Z,11.03
2017-11-18T21:42:52.709Z,12.10
2017-11-18T21:45:19.979Z,12.00
2017-11-18T21:47:47.260Z,13.10
2017-11-18T21:50:14.528Z,12.50
2017-11-18T21:52:41.815Z,12.03
2017-11-18T21:55:09.093Z,12.97
2017-11-18T21:57:36.372Z,12.00
2017-11-18T22:00:03.644Z,13.30
2017-11-18T22:02:30.936Z,12.43
2017-11-18T22:04:58.205Z,13.63
2017-11-18T22:07:25.491Z,14.60
2017-11-18T22:09:52.769Z,12.87
2017-11-18T22:12:20.048Z,12.33
2017-11-18T22:14:47.316Z,12.77
2017-11-18T22:17:14.612Z,12.50
2017-11-18T22:19:41.887Z,11.93
2017-11-18T22:22:09.177Z,13.00
2017-11-18T22:24:36.445Z,12.90
2017-11-18T22:27:03.717Z,13.17
2017-11-18T22:29:31.028Z,13.10
2017-11-18T22:31:58.299Z,13.13
2017-11-18T22:34:25.594Z,13.20
2017-11-18T22:36:52.870Z,11.97
2017-11-18T22:39:20.154Z,12.67
2017-11-18T22:41:47.423Z,13.37
2017-11-18T22:44:14.721Z,10.97
2017-11-18T22:46:41.986Z,9.47
2017-11-18T22:49:09.271Z,10.00
2017-11-18T22:51:36.533Z,9.10
2017-11-18T22:54:03.872Z,8.70
2017-11-18T22:56:31.131Z,9.60
2017-11-18T22:58:58.402Z,9.67
2017-11-18T23:01:25.681Z,8.57
2017-11-18T23:03:53.005Z,9.43
2017-11-18T23:06:20.269Z,8.00
2017-11-18T23:08:47.528Z,9.17
2017-11-18T23:11:14.826Z,8.90
2017-11-18T23:13:42.089Z,9.40
2017-11-18T23:16:09.393Z,7.80
2017-11-18T23:18:36.653Z,9.57
2017-11-18T23:21:03.919Z,9.10
2017-11-18T23:23:31.198Z,9.87
2017-11-18T23:25:58.463Z,10.60
2017-11-18T23:28:25.761Z,8.27
2017-11-18T23:30:53.022Z,9.17
2017-11-18T23:33:20.296Z,9.97
2017-11-18T23:35:47.566Z,8.53
2017-11-18T23:38:14.844Z,9.00
2017-11-18T23:40:42.100Z,8.07
2017-11-18T23:43:09.380Z,9.00
2017-11-18T23:45:36.988Z,8.00
2017-11-18T23:48:04.244Z,9.67
2017-11-18T23:50:31.520Z,7.10
2017-11-18T23:52:58.786Z,7.90
2017-11-18T23:55:26.064Z,8.23
2017-11-18T23:57:53.325Z,8.23
